Time;durP1;ratioP1;P1;durP2;ratioP2;P2;SDS_P1;SDS_P2;PMS_P1;PMS_P2;Temp;Humidity;BMP_temperature;BMP_pressure;BME280_temperature;BME280_humidity;BME280_pressure;Samples;Min_cycle;Max_cycle;Signal;HPM_P1;HPM_P2
2023/04/24 00:00:14;;;;;;;24.73;14.23;;;15.10;79.60;;;;;;4998303;28;20058;-74
2023/04/24 00:02:46;;;;;;;22.50;14.25;;;15.00;79.50;;;;;;4998505;28;20046;-75
2023/04/24 00:05:17;;;;;;;22.48;12.90;;;15.00;79.50;;;;;;4998466;28;20157;-74
2023/04/24 00:07:44;;;;;;;22.33;13.88;;;15.00;79.20;;;;;;4997210;28;20034;-75
2023/04/24 00:10:11;;;;;;;22.38;13.05;;;15.00;79.20;;;;;;4998404;28;20022;-75
2023/04/24 00:12:38;;;;;;;19.42;12.63;;;15.10;79.00;;;;;;4998053;28;20444;-74
2023/04/24 00:15:05;;;;;;;21.98;14.23;;;15.00;78.70;;;;;;4998281;28;20064;-75
2023/04/24 00:17:31;;;;;;;23.25;14.55;;;15.10;78.70;;;;;;4997052;28;20043;-74
2023/04/24 00:20:01;;;;;;;24.17;14.70;;;15.00;78.80;;;;;;4998207;28;20037;-75
2023/04/24 00:22:28;;;;;;;23.35;14.18;;;15.00;78.90;;;;;;4998125;28;20034;-75
2023/04/24 00:24:55;;;;;;;24.95;14.65;;;15.00;78.90;;;;;;4997892;28;20042;-75
2023/04/24 00:27:21;;;;;;;19.80;12.70;;;14.90;78.80;;;;;;4997633;28;20026;-74
2023/04/24 00:29:47;;;;;;;21.83;14.05;;;14.90;78.60;;;;;;4996948;28;20049;-75
2023/04/24 00:32:13;;;;;;;21.08;12.55;;;15.00;78.70;;;;;;4997713;28;20436;-74
2023/04/24 00:34:39;;;;;;;18.58;11.95;;;15.00;78.60;;;;;;4997952;28;20030;-74
2023/04/24 00:37:05;;;;;;;14.82;10.50;;;15.00;78.30;;;;;;4997813;28;20026;-74
2023/04/24 00:39:32;;;;;;;16.60;10.75;;;15.00;78.10;;;;;;4997565;28;20145;-74
2023/04/24 00:41:58;;;;;;;19.48;12.23;;;15.10;78.00;;;;;;4998070;28;20040;-74
2023/04/24 00:44:25;;;;;;;22.75;14.32;;;15.10;78.10;;;;;;4998039;28;20081;-74
2023/04/24 00:46:54;;;;;;;22.15;14.30;;;15.10;78.30;;;;;;4997284;28;20037;-74
2023/04/24 00:49:23;;;;;;;22.17;14.15;;;15.10;78.20;;;;;;4997619;28;20033;-74
2023/04/24 00:51:50;;;;;;;22.63;13.18;;;15.10;78.40;;;;;;4997861;28;20102;-74
2023/04/24 00:54:17;;;;;;;20.08;14.25;;;15.00;78.30;;;;;;4997535;28;20038;-74
2023/04/24 00:56:45;;;;;;;24.25;14.60;;;15.10;78.30;;;;;;4997117;28;20053;-74
2023/04/24 00:59:16;;;;;;;21.40;13.48;;;15.00;78.40;;;;;;4997172;28;20435;-74
2023/04/24 01:01:42;;;;;;;18.67;12.93;;;15.00;78.10;;;;;;4997114;28;20030;-74
2023/04/24 01:04:09;;;;;;;19.45;13.38;;;15.10;78.00;;;;;;4997107;28;20019;-74
2023/04/24 01:06:38;;;;;;;22.13;14.10;;;15.00;78.00;;;;;;4996857;28;20483;-74
2023/04/24 01:09:05;;;;;;;22.98;15.27;;;15.00;78.00;;;;;;4996985;28;20348;-74
2023/04/24 01:11:31;;;;;;;21.60;13.73;;;15.00;77.80;;;;;;4996924;28;20046;-74
2023/04/24 01:13:58;;;;;;;20.95;12.63;;;15.00;77.70;;;;;;4997195;28;20054;-74
2023/04/24 01:16:24;;;;;;;19.98;13.13;;;15.00;77.60;;;;;;4997051;28;20431;-74
2023/04/24 01:18:51;;;;;;;20.73;13.13;;;15.00;77.40;;;;;;4997340;28;20343;-74
2023/04/24 01:21:19;;;;;;;18.65;12.32;;;15.00;77.30;;;;;;4979780;28;20366;-74
2023/04/24 01:23:46;;;;;;;21.20;13.07;;;15.00;77.20;;;;;;4996985;28;20039;-74
2023/04/24 01:26:14;;;;;;;17.92;11.85;;;15.00;76.90;;;;;;4996796;28;20084;-74
2023/04/24 01:28:40;;;;;;;17.95;11.80;;;15.00;76.80;;;;;;4996619;28;20101;-74
2023/04/24 01:31:06;;;;;;;17.48;11.38;;;14.90;76.60;;;;;;4996601;28;20134;-74
2023/04/24 01:33:32;;;;;;;18.92;11.70;;;14.90;76.20;;;;;;4997135;28;20018;-74
2023/04/24 01:35:58;;;;;;;17.95;10.73;;;14.90;75.90;;;;;;4996949;28;20498;-74
2023/04/24 01:38:24;;;;;;;17.67;10.65;;;14.90;75.70;;;;;;4996740;28;20022;-74
2023/04/24 01:40:51;;;;;;;14.73;10.13;;;15.00;75.70;;;;;;4997438;28;20030;-74
2023/04/24 01:43:18;;;;;;;17.30;11.13;;;14.90;75.60;;;;;;4996421;28;20022;-74
2023/04/24 01:45:44;;;;;;;16.80;10.98;;;14.90;75.50;;;;;;4996242;28;20034;-74
2023/04/24 01:48:11;;;;;;;15.73;10.20;;;14.90;75.50;;;;;;4996341;28;20021;-74
2023/04/24 01:50:37;;;;;;;14.90;9.73;;;14.90;75.20;;;;;;4996825;28;20037;-74
2023/04/24 01:53:03;;;;;;;12.82;9.38;;;14.90;75.30;;;;;;4996237;28;20014;-74
2023/04/24 01:55:29;;;;;;;15.25;10.05;;;14.90;75.10;;;;;;4996486;28;20077;-74
2023/04/24 01:57:56;;;;;;;17.80;9.60;;;15.00;74.90;;;;;;4995954;28;20212;-74
2023/04/24 02:00:24;;;;;;;16.35;8.85;;;14.90;74.90;;;;;;4996171;28;20050;-74
2023/04/24 02:02:50;;;;;;;13.73;9.25;;;14.90;74.70;;;;;;4996122;28;20026;-74
2023/04/24 02:05:16;;;;;;;13.00;8.07;;;14.90;74.60;;;;;;4996546;28;20030;-74
2023/04/24 02:07:42;;;;;;;14.60;9.27;;;14.90;74.50;;;;;;4995962;28;20022;-75
2023/04/24 02:10:08;;;;;;;12.00;8.05;;;14.90;74.40;;;;;;4996300;28;20023;-74
2023/04/24 02:12:34;;;;;;;14.63;8.23;;;14.90;74.30;;;;;;4996255;28;20125;-74
2023/04/24 02:15:00;;;;;;;13.32;8.23;;;15.00;74.20;;;;;;4996529;28;20471;-74
2023/04/24 02:17:26;;;;;;;11.50;8.18;;;14.90;74.20;;;;;;4996162;28;20099;-74
2023/04/24 02:19:52;;;;;;;14.40;8.10;;;15.00;74.10;;;;;;4996482;28;20050;-75
2023/04/24 02:22:18;;;;;;;12.60;8.50;;;15.00;74.00;;;;;;4995934;28;20109;-75
2023/04/24 02:24:44;;;;;;;13.15;7.53;;;15.00;73.90;;;;;;4996167;28;20497;-74
2023/04/24 02:27:11;;;;;;;10.45;7.20;;;15.00;73.90;;;;;;4995738;28;20065;-75
2023/04/24 02:29:37;;;;;;;13.90;8.38;;;15.00;73.90;;;;;;4995853;28;20443;-75
2023/04/24 02:32:03;;;;;;;11.82;8.25;;;15.10;73.70;;;;;;4996400;28;20152;-75
2023/04/24 02:34:29;;;;;;;13.60;8.32;;;15.00;73.50;;;;;;4995873;28;20050;-75
2023/04/24 02:36:55;;;;;;;11.52;8.20;;;15.10;73.40;;;;;;4996258;28;20030;-74
2023/04/24 02:39:21;;;;;;;12.60;8.05;;;15.10;73.40;;;;;;4995804;28;20026;-74
2023/04/24 02:41:47;;;;;;;15.50;8.70;;;15.00;73.20;;;;;;4996263;28;20031;-74
2023/04/24 02:44:13;;;;;;;13.50;8.85;;;15.00;73.10;;;;;;4995724;28;20022;-74
2023/04/24 02:46:41;;;;;;;12.15;8.02;;;15.10;72.80;;;;;;4995603;28;20045;-74
2023/04/24 02:49:06;;;;;;;13.13;8.80;;;15.00;72.70;;;;;;4995648;28;20077;-74
2023/04/24 02:51:32;;;;;;;12.10;8.05;;;15.00;72.50;;;;;;4995698;28;20034;-74
2023/04/24 02:53:58;;;;;;;11.93;7.93;;;15.00;72.60;;;;;;4998451;28;20085;-74
2023/04/24 02:56:24;;;;;;;13.63;8.48;;;15.00;72.50;;;;;;4999389;28;20054;-74
2023/04/24 02:58:50;;;;;;;12.00;8.45;;;15.00;72.30;;;;;;4999408;28;20033;-74
2023/04/24 03:01:17;;;;;;;12.85;7.90;;;15.00;71.80;;;;;;4999622;28;20026;-74
2023/04/24 03:03:43;;;;;;;11.63;7.57;;;14.90;72.10;;;;;;4999380;28;20049;-74
2023/04/24 03:06:09;;;;;;;12.25;7.90;;;15.00;72.10;;;;;;4999390;28;20444;-74
2023/04/24 03:08:35;;;;;;;13.85;8.52;;;14.90;72.10;;;;;;4999776;28;20431;-74
2023/04/24 03:11:01;;;;;;;12.15;7.57;;;14.90;72.10;;;;;;4999499;28;20023;-74
2023/04/24 03:13:27;;;;;;;12.57;7.45;;;14.90;72.10;;;;;;4999178;28;20387;-75
2023/04/24 03:15:53;;;;;;;12.77;8.00;;;14.90;72.10;;;;;;4999321;28;20035;-74
2023/04/24 03:18:19;;;;;;;12.50;7.78;;;14.90;71.60;;;;;;4999383;28;20113;-74
2023/04/24 03:20:47;;;;;;;11.50;8.05;;;14.90;71.70;;;;;;4999295;28;20531;-74
2023/04/24 03:23:13;;;;;;;12.73;8.32;;;14.90;71.30;;;;;;4998959;28;20102;-74
2023/04/24 03:25:38;;;;;;;13.00;7.90;;;14.90;71.40;;;;;;4999180;28;20030;-74
2023/04/24 03:28:04;;;;;;;11.02;7.28;;;14.90;71.50;;;;;;4999139;28;20465;-74
2023/04/24 03:30:30;;;;;;;14.18;8.20;;;14.90;71.40;;;;;;4998875;28;20460;-74
2023/04/24 03:32:57;;;;;;;13.45;7.10;;;14.90;71.30;;;;;;4999086;28;20101;-74
2023/04/24 03:35:23;;;;;;;11.60;7.25;;;14.90;71.30;;;;;;4999013;28;20333;-74
2023/04/24 03:37:49;;;;;;;12.68;7.15;;;15.00;71.40;;;;;;4998718;28;20097;-75
2023/04/24 03:40:14;;;;;;;11.13;7.38;;;15.00;71.40;;;;;;4998692;28;20427;-75
2023/04/24 03:42:40;;;;;;;11.02;6.63;;;15.00;71.30;;;;;;4998668;28;20026;-74
2023/04/24 03:45:07;;;;;;;10.48;6.82;;;15.00;71.40;;;;;;4999094;28;20029;-74
2023/04/24 03:47:33;;;;;;;12.02;7.45;;;15.00;71.20;;;;;;4998346;28;20108;-74
2023/04/24 03:49:59;;;;;;;11.68;7.25;;;15.10;71.30;;;;;;4998503;28;20069;-74
2023/04/24 03:52:25;;;;;;;11.63;7.78;;;15.10;71.20;;;;;;4998478;28;20040;-74
2023/04/24 03:54:51;;;;;;;13.75;8.00;;;15.10;71.40;;;;;;4998648;28;20073;-74
2023/04/24 03:57:17;;;;;;;13.07;7.97;;;15.10;71.10;;;;;;4998205;28;20058;-74
2023/04/24 03:59:42;;;;;;;11.73;7.63;;;15.00;71.00;;;;;;4998395;28;20029;-75
2023/04/24 04:02:08;;;;;;;10.75;7.18;;;15.00;71.20;;;;;;4998313;28;20035;-75
2023/04/24 04:04:34;;;;;;;9.75;6.88;;;15.00;71.40;;;;;;4997053;28;20101;-75
2023/04/24 04:07:02;;;;;;;9.50;6.55;;;15.00;71.50;;;;;;4998127;28;20031;-74
2023/04/24 04:09:29;;;;;;;10.65;6.30;;;15.10;71.50;;;;;;4998083;28;20038;-73
2023/04/24 04:11:55;;;;;;;9.20;6.10;;;15.10;71.60;;;;;;4998609;28;20204;-75
2023/04/24 04:14:22;;;;;;;10.60;6.60;;;15.10;71.70;;;;;;4998104;28;20470;-74
2023/04/24 04:16:48;;;;;;;11.73;7.25;;;15.10;71.90;;;;;;4998184;28;20037;-74
2023/04/24 04:19:14;;;;;;;10.77;7.15;;;15.20;72.30;;;;;;4997011;28;20030;-74
2023/04/24 04:21:40;;;;;;;11.95;6.95;;;15.10;72.10;;;;;;4997897;28;20056;-74
2023/04/24 04:24:07;;;;;;;9.77;7.07;;;15.10;72.20;;;;;;4997810;28;20439;-74
2023/04/24 04:26:33;;;;;;;12.25;6.82;;;15.10;72.30;;;;;;4997834;28;20049;-74
2023/04/24 04:29:00;;;;;;;11.55;6.60;;;15.10;72.80;;;;;;4997747;28;20033;-74
2023/04/24 04:31:26;;;;;;;10.75;6.70;;;15.10;73.10;;;;;;4997683;28;20033;-74
2023/04/24 04:33:52;;;;;;;11.18;7.25;;;15.00;72.90;;;;;;4998206;28;20022;-74
2023/04/24 04:36:18;;;;;;;10.07;6.68;;;15.00;73.50;;;;;;4996616;28;20077;-74
2023/04/24 04:38:44;;;;;;;11.05;6.55;;;15.00;73.20;;;;;;4997601;28;20101;-74
2023/04/24 04:41:10;;;;;;;11.20;6.82;;;15.00;73.20;;;;;;4997770;28;20080;-74
2023/04/24 04:43:38;;;;;;;11.10;6.70;;;15.00;73.20;;;;;;4997499;28;20463;-74
2023/04/24 04:46:03;;;;;;;11.32;6.85;;;14.90;73.20;;;;;;4996344;28;20451;-74
2023/04/24 04:48:31;;;;;;;11.25;7.38;;;15.00;73.70;;;;;;4997933;28;20053;-74
2023/04/24 04:50:57;;;;;;;10.77;7.35;;;14.90;73.40;;;;;;4997619;28;20097;-74
2023/04/24 04:53:23;;;;;;;13.55;9.05;;;14.90;73.50;;;;;;4997587;28;20033;-74
2023/04/24 04:55:49;;;;;;;16.02;10.05;;;14.90;75.00;;;;;;4997186;28;20026;-74
2023/04/24 04:58:15;;;;;;;16.20;10.20;;;14.90;75.90;;;;;;4997071;28;20058;-74
2023/04/24 05:00:42;;;;;;;14.60;9.85;;;14.70;76.20;;;;;;4997499;28;20145;-74
2023/04/24 05:03:08;;;;;;;18.50;10.35;;;14.60;76.70;;;;;;4997051;28;20038;-74
2023/04/24 05:05:34;;;;;;;17.42;10.82;;;14.50;77.30;;;;;;4997310;28;20035;-74
2023/04/24 05:08:00;;;;;;;17.52;10.48;;;14.40;77.80;;;;;;4997002;28;20030;-74
2023/04/24 05:10:25;;;;;;;17.90;10.80;;;14.30;78.20;;;;;;4997250;28;20045;-73
2023/04/24 05:12:51;;;;;;;18.85;10.70;;;14.20;79.00;;;;;;4996940;28;20076;-74
2023/04/24 05:15:18;;;;;;;17.13;10.75;;;14.00;79.30;;;;;;4997071;28;20033;-74
2023/04/24 05:17:44;;;;;;;16.75;10.68;;;13.90;79.50;;;;;;4996754;28;20022;-74
2023/04/24 05:20:10;;;;;;;17.20;10.40;;;13.90;79.90;;;;;;4996790;28;20036;-74
2023/04/24 05:22:36;;;;;;;18.40;11.10;;;13.90;80.10;;;;;;4996718;28;20030;-74
2023/04/24 05:25:02;;;;;;;17.90;10.75;;;13.90;80.40;;;;;;4996734;28;20057;-74
2023/04/24 05:27:28;;;;;;;18.95;11.43;;;13.80;80.30;;;;;;4996716;28;20435;-74
2023/04/24 05:29:54;;;;;;;19.55;10.85;;;13.80;80.30;;;;;;4997214;28;20025;-74
2023/04/24 05:32:20;;;;;;;19.20;12.02;;;13.90;80.50;;;;;;4996554;28;20026;-74
2023/04/24 05:34:46;;;;;;;17.77;11.25;;;13.90;80.80;;;;;;4997076;28;20065;-74
2023/04/24 05:37:12;;;;;;;16.38;11.07;;;13.80;80.70;;;;;;4996467;28;20113;-74
2023/04/24 05:39:38;;;;;;;18.13;10.52;;;13.80;80.80;;;;;;4997023;28;20022;-73
2023/04/24 05:42:04;;;;;;;15.13;10.23;;;13.90;80.60;;;;;;4996728;28;20034;-74
2023/04/24 05:44:30;;;;;;;19.77;10.57;;;13.90;80.40;;;;;;4996441;28;20390;-73
2023/04/24 05:46:56;;;;;;;15.23;9.73;;;13.90;80.50;;;;;;4996757;28;20042;-74
2023/04/24 05:49:22;;;;;;;17.35;10.32;;;13.90;80.40;;;;;;4996560;28;20018;-74
2023/04/24 05:51:48;;;;;;;14.75;9.88;;;13.90;80.30;;;;;;4996343;28;20106;-74
2023/04/24 05:54:14;;;;;;;17.27;9.55;;;13.90;80.00;;;;;;4996297;28;20407;-73
2023/04/24 05:56:40;;;;;;;16.27;9.80;;;13.90;80.10;;;;;;4995941;28;20058;-74
2023/04/24 05:59:07;;;;;;;15.65;10.10;;;13.90;80.10;;;;;;4996209;28;20054;-74
2023/04/24 06:01:33;;;;;;;15.85;9.55;;;13.90;80.20;;;;;;4996461;28;20030;-74
2023/04/24 06:03:59;;;;;;;13.55;8.93;;;13.80;80.20;;;;;;4996106;28;20360;-73
2023/04/24 06:06:26;;;;;;;13.77;9.40;;;13.80;80.30;;;;;;4995945;28;20093;-73
2023/04/24 06:08:53;;;;;;;14.45;8.52;;;13.80;80.40;;;;;;4996578;28;20022;-73
2023/04/24 06:11:19;;;;;;;14.18;8.70;;;13.80;80.00;;;;;;4995974;28;20068;-74
2023/04/24 06:13:45;;;;;;;12.75;8.20;;;13.90;79.70;;;;;;4996249;28;20022;-73
2023/04/24 06:16:11;;;;;;;13.07;7.55;;;13.90;79.70;;;;;;4996201;28;20113;-74
2023/04/24 06:18:37;;;;;;;12.07;8.57;;;13.90;79.40;;;;;;4996237;28;20093;-74
2023/04/24 06:21:05;;;;;;;13.18;8.05;;;13.90;79.50;;;;;;4994935;28;20428;-74
2023/04/24 06:23:32;;;;;;;14.35;8.43;;;14.00;79.30;;;;;;4995837;28;20403;-74
2023/04/24 06:25:58;;;;;;;14.30;8.27;;;14.00;79.50;;;;;;4995695;28;20066;-74
2023/04/24 06:28:25;;;;;;;13.93;8.70;;;14.10;79.40;;;;;;4997844;28;20022;-74
2023/04/24 06:30:51;;;;;;;10.02;6.97;;;14.00;79.50;;;;;;4999882;28;20034;-74
2023/04/24 06:33:17;;;;;;;15.00;7.55;;;14.00;79.40;;;;;;5000447;28;20022;-74
2023/04/24 06:35:43;;;;;;;10.32;6.97;;;14.00;79.30;;;;;;4999676;28;20368;-74
2023/04/24 06:38:09;;;;;;;11.05;6.80;;;14.00;79.10;;;;;;5000298;28;20018;-74
2023/04/24 06:40:35;;;;;;;11.07;7.00;;;14.10;79.00;;;;;;4999804;28;20026;-74
2023/04/24 06:43:02;;;;;;;10.55;7.38;;;14.10;78.90;;;;;;4999757;28;20422;-74
2023/04/24 06:45:30;;;;;;;11.02;7.15;;;14.20;79.10;;;;;;4999560;28;20030;-74
2023/04/24 06:47:56;;;;;;;13.35;8.85;;;14.20;79.20;;;;;;5000139;28;20034;-74
2023/04/24 06:50:22;;;;;;;14.13;8.95;;;14.20;79.40;;;;;;4999342;28;20400;-74
2023/04/24 06:52:48;;;;;;;15.27;9.77;;;14.20;79.50;;;;;;4999816;28;20047;-74
2023/04/24 06:55:16;;;;;;;13.88;7.90;;;14.10;79.60;;;;;;4999544;28;20434;-74
2023/04/24 06:57:42;;;;;;;9.88;6.47;;;14.10;79.60;;;;;;4999225;28;20058;-74
2023/04/24 07:00:09;;;;;;;8.75;5.30;;;14.10;79.40;;;;;;4999466;28;20022;-74
2023/04/24 07:02:35;;;;;;;11.00;5.50;;;14.10;79.00;;;;;;4999652;28;20030;-74
2023/04/24 07:05:01;;;;;;;9.35;5.72;;;14.10;78.90;;;;;;4999355;28;20356;-74
2023/04/24 07:07:27;;;;;;;8.63;5.40;;;14.10;78.60;;;;;;4999294;28;20034;-74
2023/04/24 07:09:54;;;;;;;9.48;6.20;;;14.10;78.70;;;;;;4999262;28;20415;-74
2023/04/24 07:12:21;;;;;;;9.20;5.97;;;14.10;78.60;;;;;;4999420;28;20043;-74
2023/04/24 07:14:47;;;;;;;9.00;6.07;;;14.10;78.60;;;;;;4999068;28;20491;-74
2023/04/24 07:17:14;;;;;;;11.23;7.43;;;14.10;78.90;;;;;;4999300;28;20037;-74
2023/04/24 07:19:40;;;;;;;12.27;7.47;;;14.10;79.10;;;;;;4999055;28;20034;-74
2023/04/24 07:22:06;;;;;;;10.80;7.30;;;14.00;79.30;;;;;;4999276;28;20033;-74
2023/04/24 07:24:32;;;;;;;10.27;7.00;;;14.00;79.50;;;;;;4998764;28;20030;-73
2023/04/24 07:27:00;;;;;;;11.68;7.15;;;14.00;79.60;;;;;;4998771;28;20364;-73
2023/04/24 07:29:27;;;;;;;7.45;4.25;;;14.00;79.80;;;;;;4998823;28;20026;-74
2023/04/24 07:31:53;;;;;;;3.60;2.63;;;13.90;77.60;;;;;;4998857;28;20053;-73
2023/04/24 07:34:20;;;;;;;1.63;1.40;;;13.80;74.30;;;;;;4999332;28;20034;-73
2023/04/24 07:36:46;;;;;;;1.73;1.50;;;13.60;71.60;;;;;;4998995;28;20463;-73
2023/04/24 07:39:12;;;;;;;1.63;1.48;;;13.50;73.10;;;;;;4997889;28;20030;-72
2023/04/24 07:41:38;;;;;;;2.40;2.10;;;13.40;73.90;;;;;;4998959;28;20505;-73
2023/04/24 07:44:04;;;;;;;2.47;2.00;;;13.40;75.10;;;;;;4998673;28;20462;-72
2023/04/24 07:46:30;;;;;;;2.15;1.48;;;13.20;75.90;;;;;;4998458;28;20033;-73
2023/04/24 07:48:56;;;;;;;1.88;1.33;;;13.00;74.80;;;;;;4997677;28;20443;-73
2023/04/24 07:51:22;;;;;;;2.72;1.92;;;12.90;75.20;;;;;;4998815;28;20038;-73
2023/04/24 07:53:48;;;;;;;2.00;1.00;;;12.90;75.80;;;;;;4998470;28;20054;-73
2023/04/24 07:56:14;;;;;;;1.73;1.20;;;12.80;75.60;;;;;;4997346;28;20068;-73
2023/04/24 07:58:40;;;;;;;2.47;1.58;;;12.70;76.10;;;;;;4998917;28;20042;-73
2023/04/24 08:01:06;;;;;;;2.53;2.25;;;12.70;76.30;;;;;;4998222;28;20026;-74
2023/04/24 08:03:32;;;;;;;4.22;2.92;;;12.70;77.70;;;;;;4998236;28;20108;-74
2023/04/24 08:05:58;;;;;;;4.18;2.75;;;12.80;78.50;;;;;;4998326;28;20417;-73
2023/04/24 08:08:23;;;;;;;5.05;3.00;;;12.80;78.10;;;;;;4998155;28;20503;-73
2023/04/24 08:10:49;;;;;;;4.05;1.85;;;12.90;79.40;;;;;;4998056;28;20029;-73
2023/04/24 08:13:15;;;;;;;3.45;2.40;;;12.90;78.90;;;;;;4998078;28;20030;-74
2023/04/24 08:15:41;;;;;;;4.47;2.35;;;13.00;78.50;;;;;;4997927;28;20049;-74
2023/04/24 08:18:07;;;;;;;2.75;2.25;;;13.10;78.30;;;;;;4997997;28;20036;-74
2023/04/24 08:20:33;;;;;;;3.25;2.30;;;13.20;78.10;;;;;;4998404;28;20419;-74
2023/04/24 08:22:59;;;;;;;8.68;3.10;;;13.20;78.00;;;;;;4998149;28;20022;-73
2023/04/24 08:25:25;;;;;;;2.40;1.67;;;13.40;77.30;;;;;;4998358;28;20014;-73
2023/04/24 08:27:51;;;;;;;2.60;2.17;;;13.40;76.90;;;;;;4997731;28;20061;-73
2023/04/24 08:30:18;;;;;;;2.92;2.53;;;13.50;76.70;;;;;;4997303;28;20018;-73
2023/04/24 08:32:44;;;;;;;2.15;1.95;;;13.60;77.10;;;;;;4997027;28;20023;-74
2023/04/24 08:35:10;;;;;;;2.13;1.48;;;13.70;76.60;;;;;;4997635;28;20029;-73
2023/04/24 08:37:36;;;;;;;2.42;1.60;;;13.90;73.50;;;;;;4997516;28;20081;-73
2023/04/24 08:40:15;;;;;;;3.65;2.00;;;14.00;74.50;;;;;;4997574;28;20459;-73
2023/04/24 08:42:43;;;;;;;2.58;1.42;;;14.10;75.30;;;;;;4997536;28;20030;-73
2023/04/24 08:45:11;;;;;;;2.38;1.50;;;14.20;73.70;;;;;;4997479;28;20144;-74
2023/04/24 08:47:40;;;;;;;3.95;2.80;;;14.30;74.40;;;;;;4997836;28;20037;-73
2023/04/24 08:50:07;;;;;;;4.30;2.88;;;14.40;75.00;;;;;;4997143;28;20399;-74
2023/04/24 08:52:34;;;;;;;4.38;3.10;;;14.50;75.40;;;;;;4997489;28;20042;-73
2023/04/24 08:55:01;;;;;;;2.58;2.20;;;14.60;75.70;;;;;;4997308;28;20022;-74
2023/04/24 08:57:28;;;;;;;3.03;2.60;;;14.70;75.80;;;;;;4996874;28;20050;-74
2023/04/24 08:59:55;;;;;;;4.50;2.90;;;14.80;75.70;;;;;;4996801;28;20451;-74
2023/04/24 09:02:23;;;;;;;4.18;2.88;;;14.90;76.10;;;;;;4997121;28;20027;-74
2023/04/24 09:04:49;;;;;;;4.38;2.70;;;15.10;76.20;;;;;;4997589;28;20077;-74
2023/04/24 09:07:17;;;;;;;2.63;2.30;;;15.20;76.10;;;;;;4997002;28;20031;-74
2023/04/24 09:09:44;;;;;;;3.08;2.78;;;15.30;75.90;;;;;;4997278;28;20022;-74
2023/04/24 09:12:10;;;;;;;3.40;2.83;;;15.40;75.60;;;;;;4996018;28;20033;-74
2023/04/24 09:14:42;;;;;;;4.45;3.00;;;15.50;75.40;;;;;;4996913;28;20027;-74
2023/04/24 09:17:08;;;;;;;3.67;2.40;;;15.60;75.00;;;;;;4996784;28;20109;-74
2023/04/24 09:19:34;;;;;;;3.72;2.70;;;15.70;75.00;;;;;;4997069;28;20094;-74
2023/04/24 09:22:04;;;;;;;2.60;2.20;;;15.80;74.60;;;;;;4996752;28;20113;-74
2023/04/24 09:24:30;;;;;;;3.67;2.50;;;15.90;74.50;;;;;;4996684;28;20034;-74
2023/04/24 09:27:01;;;;;;;3.53;2.30;;;16.00;74.20;;;;;;4996572;28;20047;-74
2023/04/24 09:29:27;;;;;;;2.75;2.38;;;16.10;73.90;;;;;;4996938;28;20026;-74
2023/04/24 09:31:54;;;;;;;2.30;2.10;;;16.20;73.90;;;;;;4995667;28;20026;-74
2023/04/24 09:34:24;;;;;;;2.92;2.15;;;16.30;73.10;;;;;;4996600;28;20030;-74
2023/04/24 09:36:50;;;;;;;2.40;1.67;;;16.40;72.60;;;;;;4996734;28;20084;-74
2023/04/24 09:39:17;;;;;;;1.80;1.63;;;16.40;71.20;;;;;;4997037;28;20058;-74
2023/04/24 09:41:45;;;;;;;1.83;1.67;;;16.40;70.40;;;;;;4996471;28;20034;-74
2023/04/24 09:44:20;;;;;;;1.90;1.65;;;16.50;70.20;;;;;;4996656;28;20026;-74
2023/04/24 09:46:59;;;;;;;3.33;1.70;;;16.50;68.20;;;;;;4996268;28;20038;-73
2023/04/24 09:49:27;;;;;;;1.75;1.60;;;16.50;68.50;;;;;;4996612;28;20041;-74
2023/04/24 09:52:15;;;;;;;3.15;2.60;;;16.50;68.70;;;;;;4996347;28;20162;-74
2023/04/24 09:54:40;;;;;;;1.90;1.48;;;16.60;69.10;;;;;;4996857;28;20038;-74
2023/04/24 09:57:10;;;;;;;1.52;1.40;;;16.60;68.80;;;;;;4996157;28;20066;-74
2023/04/24 09:59:44;;;;;;;2.38;1.85;;;16.60;68.50;;;;;;4996210;28;20098;-74
2023/04/24 10:02:20;;;;;;;2.47;1.42;;;16.70;68.00;;;;;;4996909;28;20049;-74
2023/04/24 10:04:58;;;;;;;2.58;2.20;;;16.80;67.50;;;;;;4996336;28;20236;-75
2023/04/24 10:07:27;;;;;;;1.95;1.40;;;16.80;67.00;;;;;;4995938;28;20466;-74
2023/04/24 10:09:53;;;;;;;3.00;1.75;;;16.90;66.80;;;;;;4996583;28;20023;-74
2023/04/24 10:12:19;;;;;;;1.58;1.48;;;16.90;66.80;;;;;;4996063;28;20419;-74
2023/04/24 10:14:46;;;;;;;1.60;1.50;;;17.00;67.10;;;;;;4995978;28;20509;-74
2023/04/24 10:17:12;;;;;;;1.83;1.13;;;17.10;66.80;;;;;;4996183;28;20031;-74
2023/04/24 10:19:40;;;;;;;2.33;1.00;;;17.20;66.20;;;;;;4996012;28;20026;-75
2023/04/24 10:22:06;;;;;;;1.38;1.27;;;17.20;65.90;;;;;;4995978;28;20109;-75
2023/04/24 10:24:36;;;;;;;1.05;0.80;;;17.30;64.90;;;;;;4995949;28;20470;-74
2023/04/24 10:27:04;;;;;;;0.80;0.80;;;17.40;64.90;;;;;;4995896;28;20033;-75
2023/04/24 10:29:31;;;;;;;1.90;1.30;;;17.40;63.00;;;;;;4996385;28;20105;-75
2023/04/24 10:31:57;;;;;;;1.45;1.23;;;17.40;63.40;;;;;;4996115;28;20030;-75
2023/04/24 10:34:24;;;;;;;1.13;1.02;;;17.40;64.10;;;;;;4996343;28;20080;-74
2023/04/24 10:36:54;;;;;;;3.00;1.25;;;17.50;63.70;;;;;;4996334;28;20412;-75
2023/04/24 10:39:21;;;;;;;1.25;1.15;;;17.50;62.20;;;;;;4996054;28;20027;-74
2023/04/24 10:41:49;;;;;;;0.85;0.80;;;17.50;62.80;;;;;;4995704;28;20483;-75
2023/04/24 10:44:15;;;;;;;1.20;0.93;;;17.60;63.60;;;;;;4995754;28;20034;-74
2023/04/24 10:46:47;;;;;;;3.47;1.10;;;17.70;62.80;;;;;;4995514;28;20482;-74
2023/04/24 10:49:13;;;;;;;1.40;1.05;;;17.80;62.40;;;;;;4994711;28;20506;-75
2023/04/24 10:51:50;;;;;;;1.30;1.20;;;17.80;61.10;;;;;;4996198;28;20026;-74
2023/04/24 10:54:26;;;;;;;1.25;1.05;;;17.90;61.00;;;;;;4996010;28;20034;-75
2023/04/24 10:56:53;;;;;;;1.20;1.00;;;17.90;61.20;;;;;;4995592;28;20058;-74
2023/04/24 10:59:27;;;;;;;1.38;1.27;;;18.00;60.30;;;;;;4995871;28;20109;-74
2023/04/24 11:01:57;;;;;;;0.90;0.90;;;18.10;61.50;;;;;;4995877;28;20057;-74
2023/04/24 11:04:34;;;;;;;1.95;1.30;;;18.10;61.00;;;;;;4988852;28;20034;-75
2023/04/24 11:07:01;;;;;;;1.40;1.30;;;18.20;59.90;;;;;;4993776;28;20371;-74
2023/04/24 11:09:36;;;;;;;1.30;1.20;;;18.20;60.10;;;;;;4993428;28;20034;-75
2023/04/24 11:12:10;;;;;;;2.08;1.20;;;18.20;60.40;;;;;;4993594;28;20019;-75
2023/04/24 11:14:59;;;;;;;1.40;1.30;;;18.30;60.30;;;;;;4995759;28;20425;-74
2023/04/24 11:17:33;;;;;;;1.40;1.30;;;18.30;59.50;;;;;;4997298;28;20022;-73
2023/04/24 11:20:11;;;;;;;1.67;1.30;;;18.30;59.00;;;;;;4996296;28;20041;-74
2023/04/24 11:22:41;;;;;;;1.95;1.50;;;18.30;59.20;;;;;;4997422;28;20067;-74
2023/04/24 11:25:11;;;;;;;1.42;1.33;;;18.40;59.20;;;;;;4998893;28;20034;-74
2023/04/24 11:27:41;;;;;;;2.58;1.50;;;18.30;59.50;;;;;;4999075;28;20037;-74
2023/04/24 11:30:10;;;;;;;2.13;1.30;;;18.40;59.20;;;;;;4998864;28;20027;-74
2023/04/24 11:32:37;;;;;;;1.70;1.30;;;18.40;58.80;;;;;;4999094;28;20109;-74
2023/04/24 11:35:13;;;;;;;1.25;1.15;;;18.40;58.20;;;;;;4997749;28;20114;-74
2023/04/24 11:37:41;;;;;;;1.83;1.52;;;18.40;58.60;;;;;;4998737;28;20087;-74
2023/04/24 11:40:10;;;;;;;1.63;1.48;;;18.40;59.70;;;;;;4998928;28;20045;-74
2023/04/24 11:42:43;;;;;;;2.22;1.63;;;18.40;59.30;;;;;;4998917;28;20033;-74
2023/04/24 11:45:10;;;;;;;;;;;18.40;59.70;;;;;;4998067;28;20053;-74
2023/04/24 11:47:37;;;;;;;1.75;1.65;;;18.40;57.30;;;;;;4998178;28;19914;-74
2023/04/24 11:50:05;;;;;;;2.45;1.65;;;18.50;59.50;;;;;;4998401;28;20069;-74
2023/04/24 11:52:33;;;;;;;1.65;1.50;;;18.50;59.60;;;;;;4981602;28;20042;-74
2023/04/24 11:54:59;;;;;;;2.70;1.35;;;18.50;59.70;;;;;;4998591;28;20019;-74
2023/04/24 11:57:33;;;;;;;1.90;1.35;;;18.50;56.20;;;;;;4998006;28;20065;-74
2023/04/24 12:00:00;;;;;;;1.65;1.40;;;18.40;57.30;;;;;;4998314;28;20037;-74
2023/04/24 12:02:27;;;;;;;1.70;1.30;;;18.30;57.60;;;;;;4998608;28;20038;-74
2023/04/24 12:04:54;;;;;;;2.45;1.45;;;18.30;57.80;;;;;;4998443;28;20085;-73
2023/04/24 12:07:21;;;;;;;1.40;1.30;;;18.30;56.70;;;;;;4997094;28;20356;-74
2023/04/24 12:09:59;;;;;;;1.23;1.13;;;18.20;57.80;;;;;;4998669;28;20033;-74
2023/04/24 12:12:27;;;;;;;1.20;1.10;;;18.20;58.80;;;;;;4998383;28;20073;-74
2023/04/24 12:14:55;;;;;;;1.30;1.02;;;18.30;58.60;;;;;;4998349;28;20030;-74
2023/04/24 12:17:32;;;;;;;1.88;1.50;;;18.40;58.80;;;;;;4997921;28;20027;-74
2023/04/24 12:20:04;;;;;;;1.98;1.30;;;18.40;57.60;;;;;;4998197;28;20026;-74
2023/04/24 12:22:55;;;;;;;1.88;1.15;;;18.50;58.90;;;;;;4998132;28;20069;-74
2023/04/24 12:25:23;;;;;;;1.65;1.13;;;18.60;58.40;;;;;;4997021;28;20027;-73
2023/04/24 12:28:13;;;;;;;1.85;1.50;;;18.70;58.40;;;;;;4997926;28;20101;-74
2023/04/24 12:30:48;;;;;;;2.83;1.83;;;18.80;59.50;;;;;;4997736;28;20033;-74
2023/04/24 12:33:23;;;;;;;1.92;1.48;;;18.90;59.20;;;;;;4997708;28;20101;-74
2023/04/24 12:35:53;;;;;;;1.40;1.25;;;18.90;58.00;;;;;;4997939;28;20022;-73
2023/04/24 12:38:24;;;;;;;2.05;1.58;;;19.00;58.50;;;;;;4997544;28;20034;-76